Aviation Digital Data Service (ADDS)

Output produced by METARs form (1546 UTC 23 August 2017)
found at http://aviationweather.gov/adds/metars/
 
KLFT 231453Z VRB03KT 10SM CLR 29/24 A3001 RMK AO2 SLP160 T02890239 53002